sensor_id;sensor_type;location;lat;lon;timestamp;pressure;altitude;pressure_sealevel;temperature;humidity
20013;BME280;10167;42.852;23.042;2023-03-12T00:01:29;94034.47;;;3.01;100.00
20013;BME280;10167;42.852;23.042;2023-03-12T00:04:01;94042.72;;;2.98;100.00
20013;BME280;10167;42.852;23.042;2023-03-12T00:06:31;94027.91;;;2.85;100.00
20013;BME280;10167;42.852;23.042;2023-03-12T00:09:00;94044.38;;;2.92;100.00
20013;BME280;10167;42.852;23.042;2023-03-12T00:11:30;94049.38;;;2.94;100.00
20013;BME280;10167;42.852;23.042;2023-03-12T00:13:59;94049.22;;;2.89;100.00
20013;BME280;10167;42.852;23.042;2023-03-12T00:16:30;94051.81;;;2.89;100.00
20013;BME280;10167;42.852;23.042;2023-03-12T00:18:59;94054.25;;;2.84;100.00
20013;BME280;10167;42.852;23.042;2023-03-12T00:21:28;94050.63;;;2.91;100.00
20013;BME280;10167;42.852;23.042;2023-03-12T00:23:57;94052.63;;;2.89;100.00
20013;BME280;10167;42.852;23.042;2023-03-12T00:26:26;94056.84;;;2.90;100.00
20013;BME280;10167;42.852;23.042;2023-03-12T00:28:55;94051.44;;;2.85;100.00
20013;BME280;10167;42.852;23.042;2023-03-12T00:31:26;94057.47;;;2.86;100.00
20013;BME280;10167;42.852;23.042;2023-03-12T00:33:59;94072.00;;;2.82;100.00
20013;BME280;10167;42.852;23.042;2023-03-12T00:36:30;94077.22;;;2.75;100.00
20013;BME280;10167;42.852;23.042;2023-03-12T00:39:01;94065.38;;;2.73;100.00
20013;BME280;10167;42.852;23.042;2023-03-12T00:41:30;94065.22;;;2.61;100.00
20013;BME280;10167;42.852;23.042;2023-03-12T00:43:59;94076.13;;;2.58;100.00
20013;BME280;10167;42.852;23.042;2023-03-12T00:46:28;94076.91;;;2.59;100.00
20013;BME280;10167;42.852;23.042;2023-03-12T00:48:59;94075.91;;;2.60;100.00
20013;BME280;10167;42.852;23.042;2023-03-12T00:51:29;94077.91;;;2.58;100.00
20013;BME280;10167;42.852;23.042;2023-03-12T00:53:58;94081.13;;;2.60;100.00
20013;BME280;10167;42.852;23.042;2023-03-12T00:56:27;94084.69;;;2.72;100.00
20013;BME280;10167;42.852;23.042;2023-03-12T00:58:56;94070.44;;;2.61;100.00
20013;BME280;10167;42.852;23.042;2023-03-12T01:01:25;94077.69;;;2.66;100.00
20013;BME280;10167;42.852;23.042;2023-03-12T01:03:55;94081.91;;;2.67;100.00
20013;BME280;10167;42.852;23.042;2023-03-12T01:06:27;94080.69;;;2.69;100.00
20013;BME280;10167;42.852;23.042;2023-03-12T01:08:56;94083.47;;;2.74;100.00
20013;BME280;10167;42.852;23.042;2023-03-12T01:11:25;94081.84;;;2.73;100.00
20013;BME280;10167;42.852;23.042;2023-03-12T01:13:55;94085.13;;;2.69;100.00
20013;BME280;10167;42.852;23.042;2023-03-12T01:16:25;94069.38;;;2.75;100.00
20013;BME280;10167;42.852;23.042;2023-03-12T01:18:57;94076.91;;;2.59;100.00
20013;BME280;10167;42.852;23.042;2023-03-12T01:21:29;94079.88;;;2.69;100.00
20013;BME280;10167;42.852;23.042;2023-03-12T01:23:59;94082.09;;;2.65;100.00
20013;BME280;10167;42.852;23.042;2023-03-12T01:26:28;94079.13;;;2.55;100.00
20013;BME280;10167;42.852;23.042;2023-03-12T01:28:59;94068.63;;;2.62;100.00
20013;BME280;10167;42.852;23.042;2023-03-12T01:31:28;94085.16;;;2.49;100.00
20013;BME280;10167;42.852;23.042;2023-03-12T01:33:57;94089.97;;;2.59;100.00
20013;BME280;10167;42.852;23.042;2023-03-12T01:36:29;94098.03;;;2.57;100.00
20013;BME280;10167;42.852;23.042;2023-03-12T01:38:58;94095.63;;;2.55;100.00
20013;BME280;10167;42.852;23.042;2023-03-12T01:41:29;94095.56;;;2.69;100.00
20013;BME280;10167;42.852;23.042;2023-03-12T01:44:01;94105.56;;;2.78;100.00
20013;BME280;10167;42.852;23.042;2023-03-12T01:46:33;94089.53;;;2.68;100.00
20013;BME280;10167;42.852;23.042;2023-03-12T01:49:10;94098.63;;;2.59;100.00
20013;BME280;10167;42.852;23.042;2023-03-12T01:51:45;94110.25;;;2.70;100.00
20013;BME280;10167;42.852;23.042;2023-03-12T01:54:18;94112.84;;;2.70;100.00
20013;BME280;10167;42.852;23.042;2023-03-12T01:56:50;94107.78;;;2.75;100.00
20013;BME280;10167;42.852;23.042;2023-03-12T01:59:23;94113.22;;;2.73;100.00
20013;BME280;10167;42.852;23.042;2023-03-12T02:01:53;94116.44;;;2.82;100.00
20013;BME280;10167;42.852;23.042;2023-03-12T02:04:24;94121.44;;;2.83;100.00
20013;BME280;10167;42.852;23.042;2023-03-12T02:07:01;94122.81;;;2.92;100.00
20013;BME280;10167;42.852;23.042;2023-03-12T02:09:31;94122.19;;;2.97;100.00
20013;BME280;10167;42.852;23.042;2023-03-12T02:12:01;94120.41;;;2.91;100.00
20013;BME280;10167;42.852;23.042;2023-03-12T02:14:31;94127.66;;;2.89;100.00
20013;BME280;10167;42.852;23.042;2023-03-12T02:17:01;94124.44;;;2.87;100.00
20013;BME280;10167;42.852;23.042;2023-03-12T02:19:39;94125.00;;;2.96;100.00
20013;BME280;10167;42.852;23.042;2023-03-12T02:22:13;94119.16;;;2.93;100.00
20013;BME280;10167;42.852;23.042;2023-03-12T02:24:46;94120.19;;;2.92;100.00
20013;BME280;10167;42.852;23.042;2023-03-12T02:27:20;94133.63;;;2.96;100.00
20013;BME280;10167;42.852;23.042;2023-03-12T02:29:50;94126.59;;;2.97;100.00
20013;BME280;10167;42.852;23.042;2023-03-12T02:32:23;94136.31;;;2.83;100.00
20013;BME280;10167;42.852;23.042;2023-03-12T02:34:55;94139.72;;;2.90;100.00
20013;BME280;10167;42.852;23.042;2023-03-12T02:37:25;94133.31;;;2.79;100.00
20013;BME280;10167;42.852;23.042;2023-03-12T02:39:59;94139.19;;;2.62;100.00
20013;BME280;10167;42.852;23.042;2023-03-12T02:42:34;94143.41;;;2.69;100.00
20013;BME280;10167;42.852;23.042;2023-03-12T02:45:05;94142.81;;;2.61;100.00
20013;BME280;10167;42.852;23.042;2023-03-12T02:47:35;94158.31;;;2.62;100.00
20013;BME280;10167;42.852;23.042;2023-03-12T02:50:04;94152.66;;;2.65;100.00
20013;BME280;10167;42.852;23.042;2023-03-12T02:52:33;94149.84;;;2.60;100.00
20013;BME280;10167;42.852;23.042;2023-03-12T02:55:05;94154.13;;;2.54;100.00
20013;BME280;10167;42.852;23.042;2023-03-12T02:57:36;94159.97;;;2.43;100.00
20013;BME280;10167;42.852;23.042;2023-03-12T03:00:13;94157.13;;;2.51;100.00
20013;BME280;10167;42.852;23.042;2023-03-12T03:02:48;94155.53;;;2.44;100.00
20013;BME280;10167;42.852;23.042;2023-03-12T03:05:17;94149.91;;;2.40;100.00
20013;BME280;10167;42.852;23.042;2023-03-12T03:07:47;94149.13;;;2.33;100.00
20013;BME280;10167;42.852;23.042;2023-03-12T03:10:16;94163.41;;;2.31;100.00
20013;BME280;10167;42.852;23.042;2023-03-12T03:12:47;94155.56;;;2.31;100.00
20013;BME280;10167;42.852;23.042;2023-03-12T03:15:17;94166.22;;;2.36;100.00
20013;BME280;10167;42.852;23.042;2023-03-12T03:17:46;94172.81;;;2.38;100.00
20013;BME280;10167;42.852;23.042;2023-03-12T03:20:15;94160.81;;;2.24;100.00
20013;BME280;10167;42.852;23.042;2023-03-12T03:22:45;94171.25;;;2.17;100.00
20013;BME280;10167;42.852;23.042;2023-03-12T03:25:15;94167.41;;;2.27;100.00
20013;BME280;10167;42.852;23.042;2023-03-12T03:27:46;94178.09;;;2.12;100.00
20013;BME280;10167;42.852;23.042;2023-03-12T03:30:16;94170.47;;;2.10;100.00
20013;BME280;10167;42.852;23.042;2023-03-12T03:32:48;94174.25;;;2.14;100.00
20013;BME280;10167;42.852;23.042;2023-03-12T03:35:18;94176.69;;;2.09;100.00
20013;BME280;10167;42.852;23.042;2023-03-12T03:37:48;94176.31;;;2.12;100.00
20013;BME280;10167;42.852;23.042;2023-03-12T03:40:18;94170.88;;;2.07;100.00
20013;BME280;10167;42.852;23.042;2023-03-12T03:42:49;94179.28;;;2.16;100.00
20013;BME280;10167;42.852;23.042;2023-03-12T03:45:18;94194.97;;;2.09;100.00
20013;BME280;10167;42.852;23.042;2023-03-12T03:47:47;94196.19;;;2.13;100.00
20013;BME280;10167;42.852;23.042;2023-03-12T03:50:17;94200.97;;;2.16;100.00
20013;BME280;10167;42.852;23.042;2023-03-12T03:52:47;94203.59;;;2.23;100.00
20013;BME280;10167;42.852;23.042;2023-03-12T03:55:16;94207.63;;;2.26;100.00
20013;BME280;10167;42.852;23.042;2023-03-12T03:57:45;94212.63;;;2.27;100.00
20013;BME280;10167;42.852;23.042;2023-03-12T04:00:18;94215.06;;;2.35;100.00
20013;BME280;10167;42.852;23.042;2023-03-12T04:02:50;94217.47;;;2.37;100.00
20013;BME280;10167;42.852;23.042;2023-03-12T04:05:20;94208.63;;;2.25;100.00
20013;BME280;10167;42.852;23.042;2023-03-12T04:07:51;94212.84;;;2.26;100.00
20013;BME280;10167;42.852;23.042;2023-03-12T04:10:23;94222.88;;;2.15;100.00
20013;BME280;10167;42.852;23.042;2023-03-12T04:12:52;94230.72;;;2.22;100.00
20013;BME280;10167;42.852;23.042;2023-03-12T04:15:23;94231.94;;;2.19;100.00
20013;BME280;10167;42.852;23.042;2023-03-12T04:17:52;94230.13;;;1.87;100.00
20013;BME280;10167;42.852;23.042;2023-03-12T04:20:23;94240.53;;;1.94;100.00
20013;BME280;10167;42.852;23.042;2023-03-12T04:22:52;94245.97;;;1.79;100.00
20013;BME280;10167;42.852;23.042;2023-03-12T04:25:22;94247.19;;;1.96;100.00
20013;BME280;10167;42.852;23.042;2023-03-12T04:27:52;94247.78;;;2.05;100.00
20013;BME280;10167;42.852;23.042;2023-03-12T04:30:22;94248.41;;;2.13;100.00
20013;BME280;10167;42.852;23.042;2023-03-12T04:32:52;94250.59;;;1.90;100.00
20013;BME280;10167;42.852;23.042;2023-03-12T04:35:22;94266.91;;;2.12;100.00
20013;BME280;10167;42.852;23.042;2023-03-12T04:37:52;94258.44;;;2.16;100.00
20013;BME280;10167;42.852;23.042;2023-03-12T04:40:22;94264.09;;;2.13;100.00
20013;BME280;10167;42.852;23.042;2023-03-12T04:42:51;94278.94;;;2.33;100.00
20013;BME280;10167;42.852;23.042;2023-03-12T04:45:23;94267.09;;;2.24;100.00
20013;BME280;10167;42.852;23.042;2023-03-12T04:47:52;94268.47;;;2.26;100.00
20013;BME280;10167;42.852;23.042;2023-03-12T04:50:21;94270.69;;;2.09;100.00
20013;BME280;10167;42.852;23.042;2023-03-12T04:52:51;94276.34;;;2.13;100.00
20013;BME280;10167;42.852;23.042;2023-03-12T04:55:21;94290.19;;;2.13;100.00
20013;BME280;10167;42.852;23.042;2023-03-12T04:57:50;94281.34;;;2.08;100.00
20013;BME280;10167;42.852;23.042;2023-03-12T05:00:19;94290.19;;;2.07;100.00
20013;BME280;10167;42.852;23.042;2023-03-12T05:02:51;94291.78;;;2.08;100.00
20013;BME280;10167;42.852;23.042;2023-03-12T05:05:21;94289.75;;;1.97;100.00
20013;BME280;10167;42.852;23.042;2023-03-12T05:07:51;94291.56;;;1.90;100.00
20013;BME280;10167;42.852;23.042;2023-03-12T05:10:20;94309.25;;;2.01;100.00
20013;BME280;10167;42.852;23.042;2023-03-12T05:12:50;94316.28;;;2.00;100.00
20013;BME280;10167;42.852;23.042;2023-03-12T05:15:20;94322.31;;;2.01;100.00
20013;BME280;10167;42.852;23.042;2023-03-12T05:17:51;94317.25;;;1.86;100.00
20013;BME280;10167;42.852;23.042;2023-03-12T05:20:21;94327.50;;;1.94;100.00
20013;BME280;10167;42.852;23.042;2023-03-12T05:22:51;94329.31;;;1.80;100.00
20013;BME280;10167;42.852;23.042;2023-03-12T05:25:20;94336.78;;;2.10;100.00
20013;BME280;10167;42.852;23.042;2023-03-12T05:27:49;94335.97;;;2.16;100.00
20013;BME280;10167;42.852;23.042;2023-03-12T05:30:18;94331.38;;;2.18;100.00
20013;BME280;10167;42.852;23.042;2023-03-12T05:32:48;94342.88;;;2.43;100.00
20013;BME280;10167;42.852;23.042;2023-03-12T05:35:18;94343.66;;;2.64;100.00
20013;BME280;10167;42.852;23.042;2023-03-12T05:37:48;94342.47;;;2.79;100.00
20013;BME280;10167;42.852;23.042;2023-03-12T05:40:17;94356.53;;;2.98;100.00
20013;BME280;10167;42.852;23.042;2023-03-12T05:42:46;94350.47;;;3.11;100.00
20013;BME280;10167;42.852;23.042;2023-03-12T05:45:15;94357.66;;;3.28;100.00
20013;BME280;10167;42.852;23.042;2023-03-12T05:47:49;94356.63;;;3.49;100.00
20013;BME280;10167;42.852;23.042;2023-03-12T05:50:20;94369.38;;;3.84;100.00
20013;BME280;10167;42.852;23.042;2023-03-12T05:52:50;94367.19;;;4.19;100.00
20013;BME280;10167;42.852;23.042;2023-03-12T05:55:19;94372.38;;;4.32;100.00
20013;BME280;10167;42.852;23.042;2023-03-12T05:57:48;94373.59;;;5.10;100.00
20013;BME280;10167;42.852;23.042;2023-03-12T06:00:18;94377.09;;;5.66;100.00
20013;BME280;10167;42.852;23.042;2023-03-12T06:02:54;94372.59;;;6.09;100.00
20013;BME280;10167;42.852;23.042;2023-03-12T06:05:25;94388.06;;;6.47;100.00
20013;BME280;10167;42.852;23.042;2023-03-12T06:07:55;94386.72;;;6.98;100.00
20013;BME280;10167;42.852;23.042;2023-03-12T06:10:24;94389.03;;;7.53;98.94
20013;BME280;10167;42.852;23.042;2023-03-12T06:12:53;94390.19;;;8.20;96.74
20013;BME280;10167;42.852;23.042;2023-03-12T06:15:23;94405.22;;;8.31;95.60
20013;BME280;10167;42.852;23.042;2023-03-12T06:17:52;94399.94;;;9.22;93.67
20013;BME280;10167;42.852;23.042;2023-03-12T06:20:22;94392.66;;;9.29;91.39
20013;BME280;10167;42.852;23.042;2023-03-12T06:22:53;94406.34;;;9.26;89.33
20013;BME280;10167;42.852;23.042;2023-03-12T06:25:22;94416.31;;;9.91;87.85
20013;BME280;10167;42.852;23.042;2023-03-12T06:27:51;94423.25;;;10.35;87.12
20013;BME280;10167;42.852;23.042;2023-03-12T06:30:20;94433.72;;;10.47;81.78
20013;BME280;10167;42.852;23.042;2023-03-12T06:32:50;94442.28;;;10.54;82.00
20013;BME280;10167;42.852;23.042;2023-03-12T06:35:20;94436.75;;;10.34;76.87
20013;BME280;10167;42.852;23.042;2023-03-12T06:37:49;94444.38;;;9.75;76.76
20013;BME280;10167;42.852;23.042;2023-03-12T06:40:19;94445.25;;;9.30;79.78
20013;BME280;10167;42.852;23.042;2023-03-12T06:42:48;94434.94;;;9.12;81.83
20013;BME280;10167;42.852;23.042;2023-03-12T06:45:17;94442.56;;;8.97;82.04
20013;BME280;10167;42.852;23.042;2023-03-12T06:47:47;94440.78;;;8.06;83.84
20013;BME280;10167;42.852;23.042;2023-03-12T06:50:17;94461.44;;;7.85;83.74
20013;BME280;10167;42.852;23.042;2023-03-12T06:52:46;94444.91;;;7.32;85.10
20013;BME280;10167;42.852;23.042;2023-03-12T06:55:15;94443.16;;;7.14;88.30
20013;BME280;10167;42.852;23.042;2023-03-12T06:57:45;94453.41;;;6.92;87.96
20013;BME280;10167;42.852;23.042;2023-03-12T07:00:15;94456.03;;;6.92;90.52
20013;BME280;10167;42.852;23.042;2023-03-12T07:02:44;94456.31;;;6.72;86.78
20013;BME280;10167;42.852;23.042;2023-03-12T07:05:14;94456.38;;;6.36;94.28
20013;BME280;10167;42.852;23.042;2023-03-12T07:07:43;94449.53;;;6.16;94.49
20013;BME280;10167;42.852;23.042;2023-03-12T07:10:12;94458.09;;;6.30;93.07
20013;BME280;10167;42.852;23.042;2023-03-12T07:12:41;94466.59;;;6.44;92.79
20013;BME280;10167;42.852;23.042;2023-03-12T07:15:12;94477.03;;;6.50;91.85
20013;BME280;10167;42.852;23.042;2023-03-12T07:17:41;94475.22;;;6.51;89.72
20013;BME280;10167;42.852;23.042;2023-03-12T07:20:11;94478.94;;;6.43;90.48
20013;BME280;10167;42.852;23.042;2023-03-12T07:22:40;94473.59;;;6.50;93.93
20013;BME280;10167;42.852;23.042;2023-03-12T07:25:09;94484.69;;;6.70;90.28
20013;BME280;10167;42.852;23.042;2023-03-12T07:27:39;94479.47;;;6.82;87.95
20013;BME280;10167;42.852;23.042;2023-03-12T07:30:09;94479.16;;;6.60;91.51
20013;BME280;10167;42.852;23.042;2023-03-12T07:32:40;94479.25;;;6.35;88.70
20013;BME280;10167;42.852;23.042;2023-03-12T07:35:09;94488.81;;;6.48;88.30
20013;BME280;10167;42.852;23.042;2023-03-12T07:37:39;94496.16;;;6.57;90.61
20013;BME280;10167;42.852;23.042;2023-03-12T07:40:10;94481.28;;;6.51;87.94
20013;BME280;10167;42.852;23.042;2023-03-12T07:42:39;94487.13;;;6.53;88.97
20013;BME280;10167;42.852;23.042;2023-03-12T07:45:09;94493.69;;;6.44;86.94
20013;BME280;10167;42.852;23.042;2023-03-12T07:47:40;94499.63;;;6.40;87.18
20013;BME280;10167;42.852;23.042;2023-03-12T07:50:10;94490.28;;;6.26;87.57
20013;BME280;10167;42.852;23.042;2023-03-12T07:52:40;94478.84;;;6.20;92.92
20013;BME280;10167;42.852;23.042;2023-03-12T07:55:10;94483.47;;;6.54;92.06
20013;BME280;10167;42.852;23.042;2023-03-12T07:57:39;94485.97;;;6.31;90.94
20013;BME280;10167;42.852;23.042;2023-03-12T08:00:09;94491.72;;;6.58;90.22
20013;BME280;10167;42.852;23.042;2023-03-12T08:02:41;94482.09;;;6.82;88.12
20013;BME280;10167;42.852;23.042;2023-03-12T08:05:10;94484.13;;;6.80;89.42
20013;BME280;10167;42.852;23.042;2023-03-12T08:07:40;94502.13;;;6.83;90.46
20013;BME280;10167;42.852;23.042;2023-03-12T08:10:10;94492.28;;;7.20;86.93
20013;BME280;10167;42.852;23.042;2023-03-12T08:12:39;94511.16;;;7.17;81.04
20013;BME280;10167;42.852;23.042;2023-03-12T08:15:10;94500.00;;;7.33;84.55
20013;BME280;10167;42.852;23.042;2023-03-12T08:17:41;94508.63;;;7.10;87.67
20013;BME280;10167;42.852;23.042;2023-03-12T08:20:12;94515.50;;;6.81;86.18
20013;BME280;10167;42.852;23.042;2023-03-12T08:22:41;94517.69;;;6.66;86.19
20013;BME280;10167;42.852;23.042;2023-03-12T08:25:10;94522.50;;;6.39;89.30
20013;BME280;10167;42.852;23.042;2023-03-12T08:27:40;94514.78;;;6.56;91.14
20013;BME280;10167;42.852;23.042;2023-03-12T08:30:10;94512.63;;;6.16;88.71
20013;BME280;10167;42.852;23.042;2023-03-12T08:32:41;94524.47;;;6.26;92.38
20013;BME280;10167;42.852;23.042;2023-03-12T08:35:10;94523.94;;;6.35;88.81
20013;BME280;10167;42.852;23.042;2023-03-12T08:37:39;94531.31;;;6.63;88.02
20013;BME280;10167;42.852;23.042;2023-03-12T08:40:10;94529.94;;;6.90;87.65
20013;BME280;10167;42.852;23.042;2023-03-12T08:42:41;94532.75;;;6.77;87.80
20013;BME280;10167;42.852;23.042;2023-03-12T08:45:11;94539.66;;;6.90;88.13
20013;BME280;10167;42.852;23.042;2023-03-12T08:47:42;94542.72;;;7.05;86.27
20013;BME280;10167;42.852;23.042;2023-03-12T08:50:13;94531.22;;;7.18;85.78
20013;BME280;10167;42.852;23.042;2023-03-12T08:52:43;94529.09;;;7.38;86.43
20013;BME280;10167;42.852;23.042;2023-03-12T08:55:12;94528.75;;;7.46;86.13
20013;BME280;10167;42.852;23.042;2023-03-12T08:57:42;94537.66;;;7.34;84.47
20013;BME280;10167;42.852;23.042;2023-03-12T09:00:12;94542.50;;;7.48;83.59
20013;BME280;10167;42.852;23.042;2023-03-12T09:02:45;94540.63;;;7.79;80.12
20013;BME280;10167;42.852;23.042;2023-03-12T09:05:14;94550.13;;;7.80;82.43
20013;BME280;10167;42.852;23.042;2023-03-12T09:07:44;94544.38;;;7.71;82.14
20013;BME280;10167;42.852;23.042;2023-03-12T09:10:13;94530.72;;;7.51;83.82
20013;BME280;10167;42.852;23.042;2023-03-12T09:12:43;94542.00;;;7.93;82.78
20013;BME280;10167;42.852;23.042;2023-03-12T09:15:13;94539.25;;;8.11;82.32
20013;BME280;10167;42.852;23.042;2023-03-12T09:17:43;94538.69;;;8.21;81.16
20013;BME280;10167;42.852;23.042;2023-03-12T09:20:14;94544.63;;;8.28;81.33
20013;BME280;10167;42.852;23.042;2023-03-12T09:22:43;94541.41;;;8.26;81.30
20013;BME280;10167;42.852;23.042;2023-03-12T09:25:13;94540.63;;;8.25;80.25
20013;BME280;10167;42.852;23.042;2023-03-12T09:27:43;94528.34;;;8.54;83.09
20013;BME280;10167;42.852;23.042;2023-03-12T09:30:16;94535.06;;;8.73;78.07
20013;BME280;10167;42.852;23.042;2023-03-12T09:32:48;94542.22;;;8.26;79.81
20013;BME280;10167;42.852;23.042;2023-03-12T09:35:17;94546.59;;;8.96;81.91
20013;BME280;10167;42.852;23.042;2023-03-12T09:37:47;94543.13;;;9.35;81.73
20013;BME280;10167;42.852;23.042;2023-03-12T09:40:20;94528.53;;;9.04;77.13
20013;BME280;10167;42.852;23.042;2023-03-12T09:42:52;94539.44;;;8.80;78.01
20013;BME280;10167;42.852;23.042;2023-03-12T09:45:25;94547.88;;;8.82;79.87
20013;BME280;10167;42.852;23.042;2023-03-12T09:47:59;94538.03;;;8.77;79.40
20013;BME280;10167;42.852;23.042;2023-03-12T09:50:32;94537.72;;;9.30;80.25
20013;BME280;10167;42.852;23.042;2023-03-12T09:53:04;94546.28;;;9.21;77.37
20013;BME280;10167;42.852;23.042;2023-03-12T09:55:38;94534.28;;;9.30;78.12
20013;BME280;10167;42.852;23.042;2023-03-12T09:58:11;94542.03;;;8.91;78.17
20013;BME280;10167;42.852;23.042;2023-03-12T10:00:45;94536.56;;;9.09;77.71
20013;BME280;10167;42.852;23.042;2023-03-12T10:03:37;94553.13;;;8.93;77.35
20013;BME280;10167;42.852;23.042;2023-03-12T10:06:16;94545.97;;;9.05;76.44
20013;BME280;10167;42.852;23.042;2023-03-12T10:08:57;94545.94;;;9.62;75.19
20013;BME280;10167;42.852;23.042;2023-03-12T10:11:37;94543.88;;;9.19;75.36
20013;BME280;10167;42.852;23.042;2023-03-12T10:14:21;94549.28;;;9.41;77.33
20013;BME280;10167;42.852;23.042;2023-03-12T10:17:11;94541.28;;;9.53;76.59
20013;BME280;10167;42.852;23.042;2023-03-12T10:20:03;94545.31;;;9.72;75.78
20013;BME280;10167;42.852;23.042;2023-03-12T10:22:48;94528.72;;;9.93;77.37
20013;BME280;10167;42.852;23.042;2023-03-12T10:25:25;94534.94;;;10.54;71.50
20013;BME280;10167;42.852;23.042;2023-03-12T10:27:58;94541.22;;;9.98;74.79
20013;BME280;10167;42.852;23.042;2023-03-12T10:30:33;94551.97;;;9.74;74.12
20013;BME280;10167;42.852;23.042;2023-03-12T10:33:10;94550.22;;;10.30;75.80
20013;BME280;10167;42.852;23.042;2023-03-12T10:35:43;94546.44;;;10.09;71.26
20013;BME280;10167;42.852;23.042;2023-03-12T10:38:16;94551.41;;;10.61;69.45
20013;BME280;10167;42.852;23.042;2023-03-12T10:40:46;94537.94;;;10.84;68.75
20013;BME280;10167;42.852;23.042;2023-03-12T10:43:15;94533.72;;;11.32;71.72
20013;BME280;10167;42.852;23.042;2023-03-12T10:45:54;94530.44;;;11.47;68.46
20013;BME280;10167;42.852;23.042;2023-03-12T10:48:25;94532.41;;;10.86;68.44
20013;BME280;10167;42.852;23.042;2023-03-12T10:51:05;94530.41;;;10.71;68.42
20013;BME280;10167;42.852;23.042;2023-03-12T10:53:36;94530.97;;;11.22;66.13
20013;BME280;10167;42.852;23.042;2023-03-12T10:56:08;94537.22;;;10.67;68.07
20013;BME280;10167;42.852;23.042;2023-03-12T10:58:40;94528.03;;;10.75;69.16
20013;BME280;10167;42.852;23.042;2023-03-12T11:01:20;94536.97;;;11.12;68.67
20013;BME280;10167;42.852;23.042;2023-03-12T11:03:50;94537.22;;;10.89;67.47
20013;BME280;10167;42.852;23.042;2023-03-12T11:06:25;94534.94;;;11.46;70.15
20013;BME280;10167;42.852;23.042;2023-03-12T11:09:03;94529.91;;;12.09;67.47
20013;BME280;10167;42.852;23.042;2023-03-12T11:11:49;94531.69;;;12.35;63.31
20013;BME280;10167;42.852;23.042;2023-03-12T11:14:19;94516.50;;;12.25;56.38
20013;BME280;10167;42.852;23.042;2023-03-12T11:16:51;94508.53;;;12.30;56.48
20013;BME280;10167;42.852;23.042;2023-03-12T11:19:28;94520.50;;;12.33;55.75
20013;BME280;10167;42.852;23.042;2023-03-12T11:22:00;94517.03;;;12.27;54.50
20013;BME280;10167;42.852;23.042;2023-03-12T11:24:30;94525.19;;;12.58;55.70
20013;BME280;10167;42.852;23.042;2023-03-12T11:27:04;94517.13;;;12.00;54.05
20013;BME280;10167;42.852;23.042;2023-03-12T11:29:37;94528.97;;;12.77;50.21
20013;BME280;10167;42.852;23.042;2023-03-12T11:32:17;94530.06;;;12.81;47.64
20013;BME280;10167;42.852;23.042;2023-03-12T11:34:47;94521.19;;;12.55;50.71
20013;BME280;10167;42.852;23.042;2023-03-12T11:37:25;94531.00;;;12.55;46.61
20013;BME280;10167;42.852;23.042;2023-03-12T11:40:09;94521.78;;;12.67;45.91
20013;BME280;10167;42.852;23.042;2023-03-12T11:43:03;94507.22;;;12.28;49.02
20013;BME280;10167;42.852;23.042;2023-03-12T11:45:44;94490.03;;;11.98;48.26
20013;BME280;10167;42.852;23.042;2023-03-12T11:48:20;94510.34;;;12.62;45.21
20013;BME280;10167;42.852;23.042;2023-03-12T11:51:02;94513.34;;;12.81;48.12
20013;BME280;10167;42.852;23.042;2023-03-12T11:56:27;94500.06;;;12.81;45.77
20013;BME280;10167;42.852;23.042;2023-03-12T12:01:57;94493.06;;;12.59;45.37
20013;BME280;10167;42.852;23.042;2023-03-12T12:04:48;94501.78;;;12.50;42.59
20013;BME280;10167;42.852;23.042;2023-03-12T12:07:31;94500.81;;;12.24;47.33
20013;BME280;10167;42.852;23.042;2023-03-12T12:10:10;94498.59;;;12.11;47.17
20013;BME280;10167;42.852;23.042;2023-03-12T12:12:54;94508.06;;;12.86;45.83
20013;BME280;10167;42.852;23.042;2023-03-12T12:15:33;94512.09;;;12.41;43.68
20013;BME280;10167;42.852;23.042;2023-03-12T12:21:07;94504.28;;;11.87;46.57
20013;BME280;10167;42.852;23.042;2023-03-12T12:23:48;94505.75;;;12.10;44.87
20013;BME280;10167;42.852;23.042;2023-03-12T12:26:25;94514.19;;;12.39;47.15
20013;BME280;10167;42.852;23.042;2023-03-12T12:29:19;94509.19;;;12.53;42.83
20013;BME280;10167;42.852;23.042;2023-03-12T12:31:54;94513.81;;;12.67;43.22
20013;BME280;10167;42.852;23.042;2023-03-12T12:34:51;94516.72;;;12.66;43.86
20013;BME280;10167;42.852;23.042;2023-03-12T12:37:40;94505.66;;;12.84;43.73
20013;BME280;10167;42.852;23.042;2023-03-12T12:40:20;94501.91;;;13.73;41.19
20013;BME280;10167;42.852;23.042;2023-03-12T12:43:12;94500.25;;;13.31;41.08
20013;BME280;10167;42.852;23.042;2023-03-12T12:45:45;94508.00;;;12.76;41.68
20013;BME280;10167;42.852;23.042;2023-03-12T12:48:19;94524.47;;;13.40;39.69
20013;BME280;10167;42.852;23.042;2023-03-12T12:50:51;94515.69;;;13.50;39.29
20013;BME280;10167;42.852;23.042;2023-03-12T12:53:24;94511.94;;;13.20;39.02
20013;BME280;10167;42.852;23.042;2023-03-12T12:56:01;94513.34;;;13.63;37.49
20013;BME280;10167;42.852;23.042;2023-03-12T12:58:52;94501.31;;;13.40;39.43
20013;BME280;10167;42.852;23.042;2023-03-12T13:01:27;94499.72;;;13.55;40.89
20013;BME280;10167;42.852;23.042;2023-03-12T13:04:01;94501.63;;;13.79;36.68
20013;BME280;10167;42.852;23.042;2023-03-12T13:07:00;94502.16;;;13.81;38.17
20013;BME280;10167;42.852;23.042;2023-03-12T13:09:39;94500.34;;;12.89;37.91
20013;BME280;10167;42.852;23.042;2023-03-12T13:12:13;94506.94;;;12.71;38.96
20013;BME280;10167;42.852;23.042;2023-03-12T13:14:43;94501.84;;;12.65;39.50
20013;BME280;10167;42.852;23.042;2023-03-12T13:17:26;94504.31;;;12.82;38.92
20013;BME280;10167;42.852;23.042;2023-03-12T13:20:15;94499.91;;;12.08;41.14
20013;BME280;10167;42.852;23.042;2023-03-12T13:23:20;94499.81;;;11.61;41.04
20013;BME280;10167;42.852;23.042;2023-03-12T13:25:59;94500.53;;;11.24;42.19
20013;BME280;10167;42.852;23.042;2023-03-12T13:28:35;94512.53;;;10.83;43.30